sensor_id;sensor_type;location;lat;lon;timestamp;pressure;altitude;pressure_sealevel;temperature;humidity
55757;BME280;41676;44.610;44.078;2023-01-04T00:00:43;100789.06;;;1.55;89.53
55757;BME280;41676;44.610;44.078;2023-01-04T00:05:46;100777.94;;;1.51;90.16
55757;BME280;41676;44.610;44.078;2023-01-04T00:10:47;100750.69;;;1.41;90.02
55757;BME280;41676;44.610;44.078;2023-01-04T00:15:47;100789.59;;;1.60;89.33
55757;BME280;41676;44.610;44.078;2023-01-04T00:20:48;100720.31;;;1.11;89.21
55757;BME280;41676;44.610;44.078;2023-01-04T00:25:49;100686.63;;;0.93;89.24
55757;BME280;41676;44.610;44.078;2023-01-04T00:30:50;100675.81;;;0.84;88.81
55757;BME280;41676;44.610;44.078;2023-01-04T00:35:50;100764.81;;;1.39;89.11
55757;BME280;41676;44.610;44.078;2023-01-04T00:40:51;100778.06;;;1.50;89.20
55757;BME280;41676;44.610;44.078;2023-01-04T00:45:52;100671.44;;;0.85;88.80
55757;BME280;41676;44.610;44.078;2023-01-04T00:50:53;100769.84;;;1.42;88.81
55757;BME280;41676;44.610;44.078;2023-01-04T00:55:58;100746.53;;;1.24;89.54
55757;BME280;41676;44.610;44.078;2023-01-04T01:01:04;100705.25;;;1.15;90.88
55757;BME280;41676;44.610;44.078;2023-01-04T01:06:06;100748.53;;;1.60;90.29
55757;BME280;41676;44.610;44.078;2023-01-04T01:11:09;100755.56;;;1.60;89.88
55757;BME280;41676;44.610;44.078;2023-01-04T01:16:13;100659.16;;;1.00;89.94
55757;BME280;41676;44.610;44.078;2023-01-04T01:21:17;100710.44;;;1.29;89.86
55757;BME280;41676;44.610;44.078;2023-01-04T01:26:20;100758.59;;;1.54;89.48
55757;BME280;41676;44.610;44.078;2023-01-04T01:31:24;100674.81;;;0.87;89.56
55757;BME280;41676;44.610;44.078;2023-01-04T01:36:25;100746.78;;;1.34;89.38
55757;BME280;41676;44.610;44.078;2023-01-04T01:41:31;100667.22;;;0.82;90.56
55757;BME280;41676;44.610;44.078;2023-01-04T01:51:40;100712.94;;;1.04;89.87
55757;BME280;41676;44.610;44.078;2023-01-04T01:56:43;100747.47;;;1.23;90.22
55757;BME280;41676;44.610;44.078;2023-01-04T02:01:46;100743.94;;;1.10;89.69
55757;BME280;41676;44.610;44.078;2023-01-04T02:06:50;100726.34;;;0.85;90.20
55757;BME280;41676;44.610;44.078;2023-01-04T02:11:52;100671.66;;;0.53;89.88
55757;BME280;41676;44.610;44.078;2023-01-04T02:17:27;100744.53;;;1.01;91.15
55757;BME280;41676;44.610;44.078;2023-01-04T02:22:44;100664.50;;;0.42;89.75
55757;BME280;41676;44.610;44.078;2023-01-04T02:38:24;100735.09;;;0.42;89.60
55757;BME280;41676;44.610;44.078;2023-01-04T02:48:58;100734.13;;;0.29;89.89
55757;BME280;41676;44.610;44.078;2023-01-04T02:54:24;100742.16;;;0.26;90.15
55757;BME280;41676;44.610;44.078;2023-01-04T03:04:46;100738.34;;;0.32;90.54
55757;BME280;41676;44.610;44.078;2023-01-04T03:15:36;100651.81;;;-0.35;90.26
55757;BME280;41676;44.610;44.078;2023-01-04T03:20:38;100735.44;;;0.22;90.52
55757;BME280;41676;44.610;44.078;2023-01-04T03:25:45;100712.00;;;0.06;91.10
55757;BME280;41676;44.610;44.078;2023-01-04T03:31:13;100553.47;;;-0.79;90.85
55757;BME280;41676;44.610;44.078;2023-01-04T03:36:55;100699.44;;;0.27;91.77
55757;BME280;41676;44.610;44.078;2023-01-04T03:42:13;100712.97;;;0.34;91.19
55757;BME280;41676;44.610;44.078;2023-01-04T03:48:03;100721.53;;;0.36;91.00
55757;BME280;41676;44.610;44.078;2023-01-04T03:53:24;100724.22;;;0.20;90.04
55757;BME280;41676;44.610;44.078;2023-01-04T03:58:26;100699.78;;;0.07;90.35
55757;BME280;41676;44.610;44.078;2023-01-04T04:03:27;100693.59;;;-0.07;90.22
55757;BME280;41676;44.610;44.078;2023-01-04T04:08:46;100665.75;;;-0.36;90.38
55757;BME280;41676;44.610;44.078;2023-01-04T04:13:49;100657.19;;;-0.24;91.12
55757;BME280;41676;44.610;44.078;2023-01-04T04:18:50;100665.03;;;-0.24;90.96
55757;BME280;41676;44.610;44.078;2023-01-04T04:23:54;100643.97;;;-0.35;91.19
55757;BME280;41676;44.610;44.078;2023-01-04T04:28:55;100620.84;;;-0.41;91.26
55757;BME280;41676;44.610;44.078;2023-01-04T04:33:55;100600.31;;;-0.48;91.10
55757;BME280;41676;44.610;44.078;2023-01-04T04:38:56;100635.78;;;-0.29;91.14
55757;BME280;41676;44.610;44.078;2023-01-04T04:43:58;100703.34;;;0.34;91.81
55757;BME280;41676;44.610;44.078;2023-01-04T04:48:59;100656.78;;;0.12;91.21
55757;BME280;41676;44.610;44.078;2023-01-04T04:54:00;100636.81;;;0.11;91.41
55757;BME280;41676;44.610;44.078;2023-01-04T04:59:03;100640.06;;;0.29;92.00
55757;BME280;41676;44.610;44.078;2023-01-04T05:04:04;100598.56;;;0.25;91.82
55757;BME280;41676;44.610;44.078;2023-01-04T05:09:06;100699.47;;;1.10;91.24
55757;BME280;41676;44.610;44.078;2023-01-04T05:14:07;100635.69;;;0.98;91.02
55757;BME280;41676;44.610;44.078;2023-01-04T05:19:08;100632.13;;;1.26;90.65
55757;BME280;41676;44.610;44.078;2023-01-04T05:24:10;100613.06;;;1.37;90.68
55757;BME280;41676;44.610;44.078;2023-01-04T05:29:11;100668.22;;;1.87;90.01
55757;BME280;41676;44.610;44.078;2023-01-04T05:34:32;100638.47;;;1.88;89.88
55757;BME280;41676;44.610;44.078;2023-01-04T05:39:33;100724.91;;;2.64;89.22
55757;BME280;41676;44.610;44.078;2023-01-04T05:44:34;100707.81;;;2.59;89.41
55757;BME280;41676;44.610;44.078;2023-01-04T05:49:34;100592.03;;;1.64;89.31
55757;BME280;41676;44.610;44.078;2023-01-04T05:54:35;100627.34;;;1.97;90.16
55757;BME280;41676;44.610;44.078;2023-01-04T05:59:37;100726.47;;;2.54;90.13
55757;BME280;41676;44.610;44.078;2023-01-04T06:04:37;100720.47;;;2.90;89.61
55757;BME280;41676;44.610;44.078;2023-01-04T06:09:38;100714.38;;;3.38;89.10
55757;BME280;41676;44.610;44.078;2023-01-04T06:14:39;100661.56;;;3.54;88.68
55757;BME280;41676;44.610;44.078;2023-01-04T06:19:40;100704.81;;;4.30;87.93
55757;BME280;41676;44.610;44.078;2023-01-04T06:24:41;100698.34;;;4.56;87.13
55757;BME280;41676;44.610;44.078;2023-01-04T06:29:42;100702.75;;;4.90;86.75
55757;BME280;41676;44.610;44.078;2023-01-04T06:34:43;100619.91;;;4.62;85.53
55757;BME280;41676;44.610;44.078;2023-01-04T06:39:44;100690.13;;;5.48;85.49
55757;BME280;41676;44.610;44.078;2023-01-04T06:44:45;100601.69;;;5.34;84.57
55757;BME280;41676;44.610;44.078;2023-01-04T06:49:46;100544.88;;;5.41;83.85
55757;BME280;41676;44.610;44.078;2023-01-04T06:54:46;100632.16;;;6.21;83.58
55757;BME280;41676;44.610;44.078;2023-01-04T06:59:47;100628.47;;;6.43;82.79
55757;BME280;41676;44.610;44.078;2023-01-04T07:04:48;100682.66;;;6.97;81.81
55757;BME280;41676;44.610;44.078;2023-01-04T07:09:49;100679.53;;;7.22;81.70
55757;BME280;41676;44.610;44.078;2023-01-04T07:14:49;100670.88;;;7.59;80.66
55757;BME280;41676;44.610;44.078;2023-01-04T07:19:51;100647.19;;;7.87;79.67
55757;BME280;41676;44.610;44.078;2023-01-04T07:24:51;100592.94;;;7.73;78.80
55757;BME280;41676;44.610;44.078;2023-01-04T07:29:52;100667.13;;;8.65;77.85
55757;BME280;41676;44.610;44.078;2023-01-04T07:34:53;100663.16;;;8.97;76.82
55757;BME280;41676;44.610;44.078;2023-01-04T07:39:54;100658.16;;;9.12;76.33
55757;BME280;41676;44.610;44.078;2023-01-04T07:44:54;100618.72;;;9.09;76.14
55757;BME280;41676;44.610;44.078;2023-01-04T07:49:55;100637.50;;;9.33;75.65
55757;BME280;41676;44.610;44.078;2023-01-04T07:54:56;100588.13;;;9.14;75.83
55757;BME280;41676;44.610;44.078;2023-01-04T07:59:57;100551.63;;;8.90;75.35
55757;BME280;41676;44.610;44.078;2023-01-04T08:04:58;100638.53;;;9.58;74.89
55757;BME280;41676;44.610;44.078;2023-01-04T08:09:59;100540.09;;;9.18;74.28
55757;BME280;41676;44.610;44.078;2023-01-04T08:15:00;100597.66;;;9.69;73.59
55757;BME280;41676;44.610;44.078;2023-01-04T08:20:01;100528.44;;;9.54;72.53
55757;BME280;41676;44.610;44.078;2023-01-04T08:25:01;100604.19;;;10.09;71.40
55757;BME280;41676;44.610;44.078;2023-01-04T08:30:03;100521.34;;;9.63;69.70
55757;BME280;41676;44.610;44.078;2023-01-04T08:35:04;100540.88;;;9.88;68.83
55757;BME280;41676;44.610;44.078;2023-01-04T08:40:06;100594.38;;;10.44;67.79
55757;BME280;41676;44.610;44.078;2023-01-04T08:45:07;100554.06;;;10.48;67.61
55757;BME280;41676;44.610;44.078;2023-01-04T08:50:08;100602.31;;;10.78;68.04
55757;BME280;41676;44.610;44.078;2023-01-04T08:55:09;100526.13;;;10.28;68.31
55757;BME280;41676;44.610;44.078;2023-01-04T09:00:10;100531.94;;;10.32;68.42
55757;BME280;41676;44.610;44.078;2023-01-04T09:05:11;100564.38;;;10.51;68.46
55757;BME280;41676;44.610;44.078;2023-01-04T09:10:12;100586.84;;;10.65;68.47
55757;BME280;41676;44.610;44.078;2023-01-04T09:15:35;100575.41;;;10.81;68.09
55757;BME280;41676;44.610;44.078;2023-01-04T09:21:26;100487.56;;;10.16;68.27
55757;BME280;41676;44.610;44.078;2023-01-04T09:26:27;100544.63;;;10.54;68.05
55757;BME280;41676;44.610;44.078;2023-01-04T09:31:28;100547.31;;;10.62;68.02
55757;BME280;41676;44.610;44.078;2023-01-04T09:36:29;100516.06;;;10.48;67.69
55757;BME280;41676;44.610;44.078;2023-01-04T09:41:42;100529.53;;;10.63;67.24
55757;BME280;41676;44.610;44.078;2023-01-04T09:57:20;100537.88;;;10.92;67.34
55757;BME280;41676;44.610;44.078;2023-01-04T10:02:30;100552.50;;;11.05;67.70
55757;BME280;41676;44.610;44.078;2023-01-04T10:07:36;100451.16;;;10.50;67.63
55757;BME280;41676;44.610;44.078;2023-01-04T10:13:08;100464.78;;;10.64;67.83
55757;BME280;41676;44.610;44.078;2023-01-04T10:28:29;100399.69;;;10.27;67.58
55757;BME280;41676;44.610;44.078;2023-01-04T10:33:46;100467.94;;;10.76;68.04
55757;BME280;41676;44.610;44.078;2023-01-04T10:39:04;100541.50;;;11.32;67.80
55757;BME280;41676;44.610;44.078;2023-01-04T10:44:27;100467.09;;;10.75;67.76
55757;BME280;41676;44.610;44.078;2023-01-04T10:49:42;100462.47;;;10.69;68.50
55757;BME280;41676;44.610;44.078;2023-01-04T10:54:52;100443.53;;;10.47;68.71
55757;BME280;41676;44.610;44.078;2023-01-04T11:00:04;100427.19;;;10.26;68.82
55757;BME280;41676;44.610;44.078;2023-01-04T11:10:39;100525.66;;;10.41;69.70
55757;BME280;41676;44.610;44.078;2023-01-04T11:15:42;100373.81;;;9.20;70.19
55757;BME280;41676;44.610;44.078;2023-01-04T11:20:44;100429.75;;;9.43;70.65
55757;BME280;41676;44.610;44.078;2023-01-04T11:25:57;100529.31;;;9.97;71.17
55757;BME280;41676;44.610;44.078;2023-01-04T11:36:09;100477.31;;;9.44;71.53
55757;BME280;41676;44.610;44.078;2023-01-04T11:41:30;100534.03;;;9.77;72.09
55757;BME280;41676;44.610;44.078;2023-01-04T11:46:32;100534.34;;;9.74;72.18
55757;BME280;41676;44.610;44.078;2023-01-04T11:51:35;100540.47;;;9.75;72.53
55757;BME280;41676;44.610;44.078;2023-01-04T11:56:36;100408.06;;;9.13;72.44
55757;BME280;41676;44.610;44.078;2023-01-04T12:01:42;100537.09;;;9.91;72.57
55757;BME280;41676;44.610;44.078;2023-01-04T12:11:55;100520.00;;;9.59;73.18
55757;BME280;41676;44.610;44.078;2023-01-04T12:22:37;100518.97;;;9.26;74.02
55757;BME280;41676;44.610;44.078;2023-01-04T12:27:48;100550.47;;;9.29;74.27
55757;BME280;41676;44.610;44.078;2023-01-04T12:32:50;100557.22;;;9.05;74.46
55757;BME280;41676;44.610;44.078;2023-01-04T12:37:51;100568.75;;;8.96;75.09
55757;BME280;41676;44.610;44.078;2023-01-04T12:53:55;100553.38;;;8.36;76.16
55757;BME280;41676;44.610;44.078;2023-01-04T12:59:10;100532.47;;;8.15;77.65
55757;BME280;41676;44.610;44.078;2023-01-04T13:04:29;100583.34;;;8.37;78.04
55757;BME280;41676;44.610;44.078;2023-01-04T13:09:40;100498.84;;;7.70;77.94
55757;BME280;41676;44.610;44.078;2023-01-04T13:14:46;100546.09;;;7.93;78.72
55757;BME280;41676;44.610;44.078;2023-01-04T13:19:49;100484.50;;;7.45;78.52
55757;BME280;41676;44.610;44.078;2023-01-04T13:24:50;100556.75;;;7.73;78.72
55757;BME280;41676;44.610;44.078;2023-01-04T13:29:51;100415.97;;;6.77;79.08
55757;BME280;41676;44.610;44.078;2023-01-04T13:34:54;100589.22;;;7.66;80.00
55757;BME280;41676;44.610;44.078;2023-01-04T13:50:33;100564.63;;;7.36;81.76
55757;BME280;41676;44.610;44.078;2023-01-04T13:55:36;100572.56;;;7.26;81.20
55757;BME280;41676;44.610;44.078;2023-01-04T14:05:47;100519.19;;;6.55;82.40
55757;BME280;41676;44.610;44.078;2023-01-04T14:10:49;100531.44;;;6.66;82.58
55757;BME280;41676;44.610;44.078;2023-01-04T14:16:13;100555.34;;;6.83;84.21
55757;BME280;41676;44.610;44.078;2023-01-04T14:21:15;100583.84;;;7.09;83.69
55757;BME280;41676;44.610;44.078;2023-01-04T14:26:30;100553.38;;;6.66;84.24
55757;BME280;41676;44.610;44.078;2023-01-04T14:31:34;100392.84;;;5.63;82.76
55757;BME280;41676;44.610;44.078;2023-01-04T14:36:38;100477.91;;;6.15;83.12
55757;BME280;41676;44.610;44.078;2023-01-04T14:46:41;100577.44;;;6.92;83.28
55757;BME280;41676;44.610;44.078;2023-01-04T14:51:45;100493.94;;;6.52;83.30
55757;BME280;41676;44.610;44.078;2023-01-04T14:56:47;100594.81;;;7.34;83.60
55757;BME280;41676;44.610;44.078;2023-01-04T15:01:49;100594.97;;;7.22;81.96
55757;BME280;41676;44.610;44.078;2023-01-04T15:06:56;100554.22;;;6.96;82.05
55757;BME280;41676;44.610;44.078;2023-01-04T15:11:57;100602.59;;;7.25;82.28
55757;BME280;41676;44.610;44.078;2023-01-04T15:16:58;100608.31;;;7.21;82.11
55757;BME280;41676;44.610;44.078;2023-01-04T15:21:59;100423.88;;;6.09;81.81
55757;BME280;41676;44.610;44.078;2023-01-04T15:35:02;100548.94;;;6.67;81.98
55757;BME280;41676;44.610;44.078;2023-01-04T15:40:03;100560.47;;;6.75;82.42
55757;BME280;41676;44.610;44.078;2023-01-04T15:45:05;100530.56;;;6.46;82.70
55757;BME280;41676;44.610;44.078;2023-01-04T15:50:06;100572.41;;;6.70;82.78
55757;BME280;41676;44.610;44.078;2023-01-04T15:55:08;100598.59;;;6.92;83.39
55757;BME280;41676;44.610;44.078;2023-01-04T16:00:09;100550.31;;;6.61;83.05
55757;BME280;41676;44.610;44.078;2023-01-04T16:05:10;100609.28;;;7.00;82.91
55757;BME280;41676;44.610;44.078;2023-01-04T16:10:11;100541.88;;;6.77;82.87
55757;BME280;41676;44.610;44.078;2023-01-04T16:15:13;100616.25;;;7.30;82.99
55757;BME280;41676;44.610;44.078;2023-01-04T16:20:16;100613.28;;;7.53;83.04
55757;BME280;41676;44.610;44.078;2023-01-04T16:25:17;100586.81;;;7.72;82.50
55757;BME280;41676;44.610;44.078;2023-01-04T16:30:18;100596.75;;;7.98;81.97
55757;BME280;41676;44.610;44.078;2023-01-04T16:35:19;100522.41;;;7.64;81.73
55757;BME280;41676;44.610;44.078;2023-01-04T16:40:20;100615.97;;;8.28;81.91
55757;BME280;41676;44.610;44.078;2023-01-04T16:45:21;100622.81;;;8.30;82.43
55757;BME280;41676;44.610;44.078;2023-01-04T16:50:22;100602.09;;;8.16;82.72
55757;BME280;41676;44.610;44.078;2023-01-04T16:55:23;100616.28;;;8.24;82.97
55757;BME280;41676;44.610;44.078;2023-01-04T17:00:25;100628.28;;;8.19;83.63
55757;BME280;41676;44.610;44.078;2023-01-04T17:05:26;100632.56;;;8.30;83.79
55757;BME280;41676;44.610;44.078;2023-01-04T17:10:26;100625.09;;;8.15;84.00
55757;BME280;41676;44.610;44.078;2023-01-04T17:15:27;100607.56;;;8.05;84.08
55757;BME280;41676;44.610;44.078;2023-01-04T17:20:28;100516.50;;;7.42;84.71
55757;BME280;41676;44.610;44.078;2023-01-04T17:25:29;100592.91;;;7.83;85.48
55757;BME280;41676;44.610;44.078;2023-01-04T17:30:30;100665.19;;;8.20;86.37
55757;BME280;41676;44.610;44.078;2023-01-04T17:35:35;100670.81;;;7.98;90.99
55757;BME280;41676;44.610;44.078;2023-01-04T17:40:36;100678.25;;;7.85;91.19
55757;BME280;41676;44.610;44.078;2023-01-04T17:45:37;100621.53;;;7.40;93.16
55757;BME280;41676;44.610;44.078;2023-01-04T17:50:37;100604.97;;;7.19;94.24
55757;BME280;41676;44.610;44.078;2023-01-04T17:55:38;100687.16;;;7.64;94.95
55757;BME280;41676;44.610;44.078;2023-01-04T18:00:39;100697.31;;;7.59;95.87
55757;BME280;41676;44.610;44.078;2023-01-04T18:05:48;100702.91;;;7.66;99.35
55757;BME280;41676;44.610;44.078;2023-01-04T18:10:49;100617.63;;;7.05;97.08
55757;BME280;41676;44.610;44.078;2023-01-04T18:15:49;100710.69;;;7.67;97.82
55757;BME280;41676;44.610;44.078;2023-01-04T18:20:51;100677.84;;;7.41;97.95
55757;BME280;41676;44.610;44.078;2023-01-04T18:25:52;100684.78;;;7.42;97.82
55757;BME280;41676;44.610;44.078;2023-01-04T18:30:52;100656.84;;;7.10;97.81
55757;BME280;41676;44.610;44.078;2023-01-04T18:35:54;100602.44;;;6.59;98.02
55757;BME280;41676;44.610;44.078;2023-01-04T18:40:54;100647.22;;;6.80;97.36
55757;BME280;41676;44.610;44.078;2023-01-04T18:45:55;100609.09;;;6.53;96.86
55757;BME280;41676;44.610;44.078;2023-01-04T18:51:03;100700.50;;;7.04;97.03
55757;BME280;41676;44.610;44.078;2023-01-04T18:56:06;100710.66;;;7.09;96.13
55757;BME280;41676;44.610;44.078;2023-01-04T19:01:10;100699.50;;;7.05;95.67
55757;BME280;41676;44.610;44.078;2023-01-04T19:06:20;100705.63;;;6.96;95.27
55757;BME280;41676;44.610;44.078;2023-01-04T19:11:21;100687.22;;;6.75;95.52
55757;BME280;41676;44.610;44.078;2023-01-04T19:16:22;100583.22;;;6.07;94.71
55757;BME280;41676;44.610;44.078;2023-01-04T19:21:28;100709.44;;;6.73;95.33
55757;BME280;41676;44.610;44.078;2023-01-04T19:26:29;100735.91;;;6.82;94.58
55757;BME280;41676;44.610;44.078;2023-01-04T19:31:30;100731.72;;;6.80;94.79
55757;BME280;41676;44.610;44.078;2023-01-04T19:36:31;100729.47;;;6.75;95.18
55757;BME280;41676;44.610;44.078;2023-01-04T19:41:32;100709.28;;;6.65;94.80
55757;BME280;41676;44.610;44.078;2023-01-04T19:46:36;100628.94;;;6.07;95.25
55757;BME280;41676;44.610;44.078;2023-01-04T19:51:37;100610.41;;;5.98;94.91
55757;BME280;41676;44.610;44.078;2023-01-04T19:56:38;100650.09;;;6.27;94.91
55757;BME280;41676;44.610;44.078;2023-01-04T20:01:39;100642.84;;;6.19;94.62
55757;BME280;41676;44.610;44.078;2023-01-04T20:06:40;100656.03;;;6.19;93.91
55757;BME280;41676;44.610;44.078;2023-01-04T20:11:41;100733.06;;;6.65;94.67
55757;BME280;41676;44.610;44.078;2023-01-04T20:16:42;100648.25;;;6.17;94.23
55757;BME280;41676;44.610;44.078;2023-01-04T20:21:43;100713.72;;;6.64;94.81
55757;BME280;41676;44.610;44.078;2023-01-04T20:26:44;100609.59;;;6.07;94.69
55757;BME280;41676;44.610;44.078;2023-01-04T20:31:45;100721.06;;;6.60;94.98
55757;BME280;41676;44.610;44.078;2023-01-04T20:36:46;100682.03;;;6.24;95.40
55757;BME280;41676;44.610;44.078;2023-01-04T20:41:48;100726.91;;;6.33;96.02
55757;BME280;41676;44.610;44.078;2023-01-04T20:47:08;100693.19;;;6.06;95.90
55757;BME280;41676;44.610;44.078;2023-01-04T20:52:09;100717.22;;;6.13;96.04
55757;BME280;41676;44.610;44.078;2023-01-04T20:57:10;100731.44;;;6.22;95.86
55757;BME280;41676;44.610;44.078;2023-01-04T21:02:11;100728.41;;;6.26;96.16
55757;BME280;41676;44.610;44.078;2023-01-04T21:07:12;100653.16;;;5.80;96.50
55757;BME280;41676;44.610;44.078;2023-01-04T21:12:13;100703.09;;;6.14;96.34
55757;BME280;41676;44.610;44.078;2023-01-04T21:17:14;100734.41;;;6.28;96.97
55757;BME280;41676;44.610;44.078;2023-01-04T21:22:15;100646.38;;;5.78;96.73
55757;BME280;41676;44.610;44.078;2023-01-04T21:27:16;100720.25;;;6.29;96.62
55757;BME280;41676;44.610;44.078;2023-01-04T21:32:17;100713.41;;;6.27;96.31
55757;BME280;41676;44.610;44.078;2023-01-04T21:37:18;100636.13;;;5.84;96.28
55757;BME280;41676;44.610;44.078;2023-01-04T21:42:19;100585.31;;;5.52;96.03
55757;BME280;41676;44.610;44.078;2023-01-04T21:47:20;100633.00;;;5.69;95.93
55757;BME280;41676;44.610;44.078;2023-01-04T21:52:22;100665.66;;;5.78;96.26
55757;BME280;41676;44.610;44.078;2023-01-04T21:57:23;100746.06;;;6.26;96.01
55757;BME280;41676;44.610;44.078;2023-01-04T22:02:24;100617.22;;;5.58;96.50
55757;BME280;41676;44.610;44.078;2023-01-04T22:07:24;100636.75;;;5.77;96.09
55757;BME280;41676;44.610;44.078;2023-01-04T22:12:25;100556.91;;;5.34;96.03
55757;BME280;41676;44.610;44.078;2023-01-04T22:17:26;100733.88;;;6.34;95.71
55757;BME280;41676;44.610;44.078;2023-01-04T22:22:28;100644.25;;;5.71;95.35
55757;BME280;41676;44.610;44.078;2023-01-04T22:27:30;100743.84;;;6.31;96.00
55757;BME280;41676;44.610;44.078;2023-01-04T22:32:31;100639.34;;;5.67;94.94
55757;BME280;41676;44.610;44.078;2023-01-04T22:37:32;100575.84;;;5.28;95.23
55757;BME280;41676;44.610;44.078;2023-01-04T22:42:33;100716.69;;;6.19;94.92
55757;BME280;41676;44.610;44.078;2023-01-04T22:47:34;100734.91;;;6.22;94.83
55757;BME280;41676;44.610;44.078;2023-01-04T22:52:35;100601.75;;;5.44;94.41
55757;BME280;41676;44.610;44.078;2023-01-04T22:57:36;100702.19;;;6.04;94.26
55757;BME280;41676;44.610;44.078;2023-01-04T23:02:36;100697.81;;;5.93;94.41
55757;BME280;41676;44.610;44.078;2023-01-04T23:07:37;100654.66;;;5.73;93.99
55757;BME280;41676;44.610;44.078;2023-01-04T23:12:38;100741.09;;;6.11;94.19
55757;BME280;41676;44.610;44.078;2023-01-04T23:17:39;100695.84;;;5.74;94.44
55757;BME280;41676;44.610;44.078;2023-01-04T23:22:40;100735.88;;;6.00;94.51
55757;BME280;41676;44.610;44.078;2023-01-04T23:27:41;100652.16;;;5.51;93.76
55757;BME280;41676;44.610;44.078;2023-01-04T23:32:42;100701.84;;;5.76;93.72
55757;BME280;41676;44.610;44.078;2023-01-04T23:37:43;100702.56;;;5.78;93.94
55757;BME280;41676;44.610;44.078;2023-01-04T23:42:44;100737.16;;;5.85;93.75
55757;BME280;41676;44.610;44.078;2023-01-04T23:47:46;100795.56;;;6.22;93.29
55757;BME280;41676;44.610;44.078;2023-01-04T23:52:47;100797.66;;;6.18;93.50
55757;BME280;41676;44.610;44.078;2023-01-04T23:57:48;100629.88;;;5.22;93.51
